createdAt,value
2019-06-08T00:00:31.470Z,18.67
2019-06-08T00:03:04.567Z,18.71
2019-06-08T00:05:37.653Z,18.70
2019-06-08T00:08:10.845Z,18.70
2019-06-08T00:10:44.045Z,18.69
2019-06-08T00:13:17.133Z,18.60
2019-06-08T00:15:51.144Z,18.58
2019-06-08T00:18:24.232Z,18.49
2019-06-08T00:20:58.146Z,18.42
2019-06-08T00:23:31.338Z,18.32
2019-06-08T00:26:04.428Z,18.36
2019-06-08T00:28:37.519Z,18.33
2019-06-08T00:31:10.715Z,18.30
2019-06-08T00:33:43.814Z,18.36
2019-06-08T00:36:17.019Z,18.38
2019-06-08T00:38:50.194Z,18.35
2019-06-08T00:41:23.697Z,18.32
2019-06-08T00:43:56.792Z,18.28
2019-06-08T00:46:29.979Z,18.25
2019-06-08T00:49:03.069Z,18.25
2019-06-08T00:51:36.059Z,18.29
2019-06-08T00:54:09.254Z,18.29
2019-06-08T00:56:42.346Z,18.27
2019-06-08T00:59:17.903Z,18.19
2019-06-08T01:01:50.879Z,18.16
2019-06-08T01:04:24.815Z,18.15
2019-06-08T01:06:57.879Z,18.16
2019-06-08T01:09:31.209Z,18.15
2019-06-08T01:12:04.267Z,18.15
2019-06-08T01:14:37.319Z,18.00
2019-06-08T01:17:10.347Z,17.92
2019-06-08T01:19:43.574Z,17.89
2019-06-08T01:22:16.734Z,17.91
2019-06-08T01:24:49.931Z,17.92
2019-06-08T01:27:23.923Z,17.95
2019-06-08T01:29:56.929Z,17.91
2019-06-08T01:32:30.621Z,17.90
2019-06-08T01:35:03.728Z,17.95
2019-06-08T01:37:36.922Z,17.99
2019-06-08T01:40:10.014Z,18.01
2019-06-08T01:42:42.998Z,18.03
2019-06-08T01:45:17.731Z,17.98
2019-06-08T01:47:50.818Z,17.99
2019-06-08T01:50:24.364Z,17.93
2019-06-08T01:52:57.617Z,17.88
2019-06-08T01:55:31.202Z,17.78
2019-06-08T01:58:04.212Z,17.73
2019-06-08T02:00:41.089Z,17.72
2019-06-08T02:03:11.926Z,17.71
2019-06-08T02:05:45.120Z,17.77
2019-06-08T02:08:18.314Z,17.83
2019-06-08T02:10:51.511Z,17.88
2019-06-08T02:13:24.977Z,17.90
2019-06-08T02:15:57.895Z,17.93
2019-06-08T02:18:41.791Z,17.97
2019-06-08T02:21:05.616Z,17.98
2019-06-08T02:23:39.685Z,17.99
2019-06-08T02:26:12.816Z,17.97
2019-06-08T02:28:46.010Z,17.94
2019-06-08T02:31:19.107Z,17.96
2019-06-08T02:33:52.500Z,17.99
2019-06-08T02:36:25.488Z,18.02
2019-06-08T02:38:58.683Z,18.05
2019-06-08T02:41:33.071Z,18.10
2019-06-08T02:44:07.325Z,18.12
2019-06-08T02:46:40.738Z,18.14
2019-06-08T02:49:13.914Z,18.17
2019-06-08T02:51:47.114Z,18.18
2019-06-08T02:54:20.200Z,18.23
2019-06-08T02:56:54.331Z,18.25
2019-06-08T02:59:29.323Z,18.30
2019-06-08T03:02:01.754Z,18.36
2019-06-08T03:04:41.118Z,18.40
2019-06-08T03:07:13.635Z,18.47
2019-06-08T03:09:46.828Z,18.57
2019-06-08T03:12:20.644Z,18.67
2019-06-08T03:14:54.246Z,18.77
2019-06-08T03:17:27.127Z,18.82
2019-06-08T03:20:00.522Z,18.89
2019-06-08T03:22:34.329Z,18.96
2019-06-08T03:25:08.246Z,19.05
2019-06-08T03:27:43.234Z,19.13
2019-06-08T03:30:19.057Z,19.20
2019-06-08T03:32:56.251Z,19.27
2019-06-08T03:35:25.418Z,19.36
2019-06-08T03:37:58.407Z,19.44
2019-06-08T03:40:31.605Z,19.53
2019-06-08T03:43:05.922Z,19.65
2019-06-08T03:45:40.663Z,19.76
2019-06-08T03:48:13.641Z,19.86
2019-06-08T03:50:46.641Z,19.97
2019-06-08T03:53:19.828Z,20.08
2019-06-08T03:55:53.729Z,20.19
2019-06-08T03:58:26.928Z,20.35
2019-06-08T04:01:00.135Z,20.50
2019-06-08T04:03:33.005Z,20.65
2019-06-08T04:06:06.412Z,20.79
2019-06-08T04:08:40.895Z,20.97
2019-06-08T04:11:14.123Z,21.09
2019-06-08T04:13:47.456Z,21.21
2019-06-08T04:16:22.555Z,21.34
2019-06-08T04:18:55.446Z,21.46
2019-06-08T04:21:28.530Z,21.58
2019-06-08T04:24:01.626Z,21.70
2019-06-08T04:26:34.820Z,21.81
2019-06-08T04:29:07.910Z,21.93
2019-06-08T04:31:41.886Z,22.08
2019-06-08T04:34:14.807Z,22.08
2019-06-08T04:36:49.975Z,22.20
2019-06-08T04:39:22.525Z,22.28
2019-06-08T04:41:55.722Z,22.41
2019-06-08T04:44:28.704Z,22.52
2019-06-08T04:47:01.909Z,22.59
2019-06-08T04:49:35.197Z,22.71
2019-06-08T04:52:08.185Z,22.77
2019-06-08T04:54:42.512Z,22.77
2019-06-08T04:57:15.696Z,22.93
2019-06-08T04:59:50.395Z,23.04
2019-06-08T05:02:23.516Z,23.10
2019-06-08T05:04:56.608Z,23.12
2019-06-08T05:07:29.809Z,23.25
2019-06-08T05:10:02.894Z,23.36
2019-06-08T05:12:36.094Z,23.45
2019-06-08T05:15:09.282Z,23.52
2019-06-08T05:17:43.223Z,23.57
2019-06-08T05:20:16.389Z,23.66
2019-06-08T05:22:49.837Z,23.67
2019-06-08T05:25:23.091Z,23.74
2019-06-08T05:27:56.173Z,23.85
2019-06-08T05:30:29.158Z,23.93
2019-06-08T05:33:03.169Z,24.07
2019-06-08T05:35:36.363Z,24.20
2019-06-08T05:38:09.457Z,24.26
2019-06-08T05:40:43.586Z,24.29
2019-06-08T05:43:17.477Z,24.45
2019-06-08T05:45:51.596Z,24.54
2019-06-08T05:48:24.688Z,24.68
2019-06-08T05:51:03.965Z,24.75
2019-06-08T05:53:32.226Z,24.88
2019-06-08T05:56:04.883Z,24.92
2019-06-08T05:58:37.873Z,25.04
2019-06-08T06:01:11.065Z,25.11
2019-06-08T06:03:44.551Z,25.20
2019-06-08T06:06:17.758Z,25.31
2019-06-08T06:08:51.112Z,25.35
2019-06-08T06:11:24.043Z,25.44
2019-06-08T06:13:57.240Z,25.54
2019-06-08T06:16:30.432Z,25.60
2019-06-08T06:19:03.634Z,25.69
2019-06-08T06:21:36.816Z,25.75
2019-06-08T06:24:10.010Z,25.88
2019-06-08T06:26:43.273Z,25.96
2019-06-08T06:29:16.498Z,26.04
2019-06-08T06:31:49.753Z,26.17
2019-06-08T06:34:22.992Z,26.26
2019-06-08T06:36:57.465Z,26.36
2019-06-08T06:39:30.502Z,26.31
2019-06-08T06:42:03.669Z,26.34
2019-06-08T06:44:36.891Z,26.37
2019-06-08T06:47:10.086Z,26.52
2019-06-08T06:49:44.513Z,26.65
2019-06-08T06:52:17.493Z,26.73
2019-06-08T06:54:51.269Z,26.73
2019-06-08T06:57:24.192Z,26.81
2019-06-08T06:59:57.281Z,26.97
2019-06-08T07:02:30.370Z,27.05
2019-06-08T07:05:03.474Z,27.15
2019-06-08T07:07:36.456Z,27.22
2019-06-08T07:10:09.546Z,27.31
2019-06-08T07:12:42.787Z,27.36
2019-06-08T07:15:18.999Z,27.48
2019-06-08T07:17:53.572Z,27.52
2019-06-08T07:20:26.718Z,27.56
2019-06-08T07:22:59.706Z,27.61
2019-06-08T07:25:33.001Z,27.79
2019-06-08T07:28:06.012Z,27.90
2019-06-08T07:30:39.186Z,27.95
2019-06-08T07:33:12.175Z,27.96
2019-06-08T07:35:46.843Z,28.02
2019-06-08T07:38:20.812Z,28.13
2019-06-08T07:40:57.893Z,28.23
2019-06-08T07:43:28.249Z,28.32
2019-06-08T07:46:01.009Z,28.10
2019-06-08T07:48:35.122Z,28.10
2019-06-08T07:51:08.322Z,28.20
2019-06-08T07:53:41.509Z,28.34
2019-06-08T07:56:14.496Z,28.39
2019-06-08T07:58:49.549Z,28.45
2019-06-08T08:01:35.234Z,28.52
2019-06-08T08:03:58.344Z,28.62
2019-06-08T08:06:31.366Z,28.69
2019-06-08T08:09:06.821Z,28.82
2019-06-08T08:11:40.012Z,28.89
2019-06-08T08:14:13.095Z,28.93
2019-06-08T08:16:46.091Z,28.99
2019-06-08T08:19:19.174Z,29.13
2019-06-08T08:21:54.553Z,29.21
2019-06-08T08:24:27.242Z,29.27
2019-06-08T08:27:03.518Z,29.31
2019-06-08T08:29:34.711Z,29.32
2019-06-08T08:32:09.924Z,29.31
2019-06-08T08:34:42.327Z,29.36
2019-06-08T08:37:17.527Z,29.40
2019-06-08T08:39:50.585Z,29.44
2019-06-08T08:42:24.567Z,29.58
2019-06-08T08:45:02.668Z,29.51
2019-06-08T08:47:32.388Z,29.62
2019-06-08T08:50:07.548Z,29.39
2019-06-08T08:52:41.126Z,29.56
2019-06-08T08:55:14.117Z,29.69
2019-06-08T08:57:48.435Z,29.79
2019-06-08T09:00:22.450Z,29.83
2019-06-08T09:03:13.153Z,29.80
2019-06-08T09:05:30.064Z,29.88
2019-06-08T09:08:04.073Z,29.94
2019-06-08T09:10:38.262Z,30.13
2019-06-08T09:13:12.081Z,30.14
2019-06-08T09:15:47.830Z,30.23
2019-06-08T09:18:20.024Z,30.32
2019-06-08T09:20:53.990Z,30.18
2019-06-08T09:23:28.050Z,30.01
2019-06-08T09:26:07.685Z,30.15
2019-06-08T09:28:35.664Z,30.23
2019-06-08T09:31:12.642Z,30.23
2019-06-08T09:33:53.318Z,30.33
2019-06-08T09:36:17.902Z,30.33
2019-06-08T09:38:53.232Z,30.48
2019-06-08T09:41:25.138Z,30.62
2019-06-08T09:44:00.519Z,30.61
2019-06-08T09:46:32.624Z,30.72
2019-06-08T09:49:09.346Z,30.72
2019-06-08T09:51:40.656Z,30.79
2019-06-08T09:54:14.050Z,30.71
2019-06-08T09:56:47.835Z,30.61
2019-06-08T09:59:20.896Z,30.51
2019-06-08T10:01:55.099Z,30.75
2019-06-08T10:04:29.194Z,30.88
2019-06-08T10:07:04.268Z,30.89
2019-06-08T10:09:38.114Z,31.04
2019-06-08T10:12:11.317Z,31.02
2019-06-08T10:14:44.406Z,31.01
2019-06-08T10:17:20.572Z,30.89
2019-06-08T10:19:51.551Z,30.86
2019-06-08T10:22:24.498Z,30.97
2019-06-08T10:25:02.180Z,31.09
2019-06-08T10:27:32.436Z,31.24
2019-06-08T10:30:10.098Z,31.27
2019-06-08T10:32:43.106Z,31.44
2019-06-08T10:35:20.651Z,31.27
2019-06-08T10:37:53.275Z,31.24
2019-06-08T10:40:25.653Z,31.29
2019-06-08T10:43:01.408Z,31.42
2019-06-08T10:45:32.884Z,31.60
2019-06-08T10:48:06.405Z,31.71
2019-06-08T10:50:40.480Z,31.80
2019-06-08T10:53:16.499Z,31.92
2019-06-08T10:55:48.144Z,32.06
2019-06-08T10:58:21.403Z,32.02
2019-06-08T11:00:54.274Z,32.08
2019-06-08T11:03:30.405Z,32.24
2019-06-08T11:06:03.293Z,32.25
2019-06-08T11:08:39.054Z,32.31
2019-06-08T11:11:12.144Z,32.42
2019-06-08T11:13:45.152Z,32.49
2019-06-08T11:16:18.465Z,32.57
2019-06-08T11:18:51.748Z,32.41
2019-06-08T11:21:25.045Z,32.55
2019-06-08T11:24:07.529Z,32.55
2019-06-08T11:26:33.079Z,32.55
2019-06-08T11:29:09.628Z,32.53
2019-06-08T11:31:40.885Z,32.62
2019-06-08T11:34:14.079Z,32.67
2019-06-08T11:36:48.409Z,32.68
2019-06-08T11:39:21.915Z,32.64
2019-06-08T11:41:54.986Z,32.63
2019-06-08T11:44:28.185Z,32.61
2019-06-08T11:47:02.503Z,32.63
2019-06-08T11:49:35.592Z,32.61
2019-06-08T11:52:09.169Z,32.62
2019-06-08T11:54:42.600Z,32.55
2019-06-08T11:57:17.654Z,32.63
2019-06-08T11:59:50.720Z,32.67
2019-06-08T12:02:23.618Z,32.68
2019-06-08T12:04:57.241Z,32.69
2019-06-08T12:07:30.429Z,32.69
2019-06-08T12:10:04.571Z,32.63
2019-06-08T12:12:38.507Z,32.54
2019-06-08T12:15:13.704Z,32.54
2019-06-08T12:17:48.217Z,32.52
2019-06-08T12:20:24.322Z,32.33
2019-06-08T12:22:54.729Z,32.41
2019-06-08T12:25:27.569Z,32.37
2019-06-08T12:28:00.766Z,32.41
2019-06-08T12:30:33.751Z,32.34
2019-06-08T12:33:09.386Z,32.31
2019-06-08T12:35:41.674Z,32.30
2019-06-08T12:38:16.507Z,32.21
2019-06-08T12:40:48.816Z,32.15
2019-06-08T12:43:21.765Z,32.02
2019-06-08T12:45:54.856Z,32.02
2019-06-08T12:48:28.730Z,31.98
2019-06-08T12:51:01.862Z,31.93
2019-06-08T12:53:35.050Z,31.80
2019-06-08T12:56:10.119Z,31.73
2019-06-08T12:58:42.181Z,31.65
2019-06-08T13:01:15.143Z,31.53
2019-06-08T13:03:48.562Z,31.47
2019-06-08T13:06:21.634Z,31.43
2019-06-08T13:08:54.627Z,31.42
2019-06-08T13:11:28.286Z,31.43
2019-06-08T13:14:01.419Z,31.46
2019-06-08T13:16:34.525Z,31.48
2019-06-08T13:19:09.261Z,31.52
2019-06-08T13:21:43.357Z,31.49
2019-06-08T13:24:17.279Z,31.50
2019-06-08T13:26:50.773Z,31.49
2019-06-08T13:29:24.060Z,31.48
2019-06-08T13:31:59.039Z,31.48
2019-06-08T13:34:31.189Z,31.44
2019-06-08T13:37:03.954Z,31.37
2019-06-08T13:39:38.796Z,31.37
2019-06-08T13:42:13.110Z,31.36
2019-06-08T13:44:47.481Z,31.37
2019-06-08T13:47:21.835Z,31.41
2019-06-08T13:49:54.444Z,31.43
2019-06-08T13:52:28.140Z,31.39
2019-06-08T13:55:01.319Z,31.38
2019-06-08T13:57:34.512Z,31.40
2019-06-08T14:00:08.876Z,31.44
2019-06-08T14:02:41.718Z,31.43
2019-06-08T14:05:21.114Z,31.41
2019-06-08T14:07:51.172Z,31.42
2019-06-08T14:10:38.558Z,31.40
2019-06-08T14:13:10.873Z,31.40
2019-06-08T14:15:43.954Z,31.21
2019-06-08T14:18:21.313Z,31.24
2019-06-08T14:20:54.537Z,31.21
2019-06-08T14:23:25.814Z,31.16
2019-06-08T14:26:00.375Z,31.14
2019-06-08T14:28:33.301Z,31.10
2019-06-08T14:31:08.288Z,31.07
2019-06-08T14:33:41.427Z,31.08
2019-06-08T14:36:14.519Z,31.08
2019-06-08T14:38:49.440Z,31.04
2019-06-08T14:41:22.831Z,31.01
2019-06-08T14:43:58.468Z,30.94
2019-06-08T14:46:30.387Z,30.92
2019-06-08T14:49:03.362Z,30.84
2019-06-08T14:51:49.971Z,30.79
2019-06-08T14:54:28.124Z,30.72
2019-06-08T14:56:58.587Z,30.65
2019-06-08T14:59:31.907Z,30.54
2019-06-08T15:02:04.878Z,30.47
2019-06-08T15:04:39.970Z,30.40
2019-06-08T15:07:12.693Z,30.31
2019-06-08T15:09:47.990Z,30.22
2019-06-08T15:12:21.452Z,30.11
2019-06-08T15:14:54.627Z,30.06
2019-06-08T15:17:28.987Z,29.91
2019-06-08T15:20:05.213Z,29.74
2019-06-08T15:22:38.895Z,29.68
2019-06-08T15:25:12.620Z,29.54
2019-06-08T15:27:47.812Z,29.55
2019-06-08T15:30:21.244Z,29.51
2019-06-08T15:32:54.458Z,29.50
2019-06-08T15:35:29.479Z,29.47
2019-06-08T15:38:02.478Z,29.41
2019-06-08T15:40:37.758Z,29.33
2019-06-08T15:43:10.505Z,29.25
2019-06-08T15:45:43.592Z,29.22
2019-06-08T15:48:20.197Z,29.15
2019-06-08T15:50:50.722Z,29.13
2019-06-08T15:53:24.363Z,29.06
2019-06-08T15:55:58.398Z,28.96
2019-06-08T15:58:32.780Z,28.85
2019-06-08T16:01:06.543Z,28.79
2019-06-08T16:03:39.940Z,28.69
2019-06-08T16:06:13.137Z,28.69
2019-06-08T16:08:46.636Z,28.67
2019-06-08T16:11:19.523Z,28.64
2019-06-08T16:13:52.612Z,28.66
2019-06-08T16:16:27.039Z,28.66
2019-06-08T16:19:00.024Z,28.64
2019-06-08T16:21:34.296Z,28.59
2019-06-08T16:24:07.227Z,28.54
2019-06-08T16:26:52.188Z,28.48
2019-06-08T16:29:14.844Z,28.44
2019-06-08T16:31:47.938Z,28.34
2019-06-08T16:34:21.027Z,28.27
2019-06-08T16:36:54.223Z,28.20
2019-06-08T16:39:28.565Z,28.13
2019-06-08T16:42:02.047Z,28.03
2019-06-08T16:44:36.426Z,27.97
2019-06-08T16:47:09.247Z,27.83
2019-06-08T16:49:42.443Z,27.82
2019-06-08T16:52:17.290Z,27.75
2019-06-08T16:54:50.367Z,27.70
2019-06-08T16:57:23.659Z,27.62
2019-06-08T16:59:56.647Z,27.54
2019-06-08T17:02:30.794Z,27.48
2019-06-08T17:05:04.879Z,27.40
2019-06-08T17:07:37.894Z,27.31
2019-06-08T17:10:10.932Z,27.24
2019-06-08T17:12:43.945Z,27.15
2019-06-08T17:15:17.136Z,27.07
2019-06-08T17:17:50.023Z,26.98
2019-06-08T17:20:23.119Z,26.88
2019-06-08T17:22:56.206Z,26.81
2019-06-08T17:25:30.367Z,26.71
2019-06-08T17:28:03.618Z,26.62
2019-06-08T17:30:37.631Z,26.50
2019-06-08T17:33:10.621Z,26.37
2019-06-08T17:35:43.712Z,26.28
2019-06-08T17:38:16.807Z,26.16
2019-06-08T17:40:49.894Z,26.01
2019-06-08T17:43:23.088Z,25.90
2019-06-08T17:45:56.278Z,25.85
2019-06-08T17:48:29.473Z,25.75
2019-06-08T17:51:02.462Z,25.61
2019-06-08T17:53:36.897Z,25.50
2019-06-08T17:56:10.999Z,25.40
2019-06-08T17:58:44.220Z,25.26
2019-06-08T18:01:17.082Z,25.06
2019-06-08T18:03:50.273Z,25.03
2019-06-08T18:06:23.535Z,24.98
2019-06-08T18:08:58.609Z,24.94
2019-06-08T18:11:31.490Z,24.88
2019-06-08T18:14:04.684Z,24.72
2019-06-08T18:16:40.897Z,24.63
2019-06-08T18:19:21.409Z,24.55
2019-06-08T18:22:02.741Z,24.44
2019-06-08T18:24:29.866Z,24.36
2019-06-08T18:27:02.832Z,24.23
2019-06-08T18:29:39.142Z,24.23
2019-06-08T18:32:10.755Z,24.15
2019-06-08T18:34:44.904Z,24.09
2019-06-08T18:37:18.200Z,24.05
2019-06-08T18:39:51.048Z,23.97
2019-06-08T18:42:24.039Z,23.82
2019-06-08T18:44:58.269Z,23.75
2019-06-08T18:47:31.349Z,23.68
2019-06-08T18:50:08.920Z,23.68
2019-06-08T18:52:44.753Z,23.61
2019-06-08T18:55:18.379Z,23.47
2019-06-08T18:57:51.284Z,23.46
2019-06-08T19:00:30.444Z,23.37
2019-06-08T19:03:03.985Z,23.26
2019-06-08T19:05:40.251Z,23.21
2019-06-08T19:08:12.247Z,23.14
2019-06-08T19:10:48.241Z,23.11
2019-06-08T19:13:21.199Z,23.06
2019-06-08T19:15:54.355Z,22.93
2019-06-08T19:18:29.282Z,22.74
2019-06-08T19:21:02.308Z,22.65
2019-06-08T19:23:37.470Z,22.59
2019-06-08T19:26:09.718Z,22.50
2019-06-08T19:28:47.635Z,22.47
2019-06-08T19:31:17.669Z,22.47
2019-06-08T19:33:53.260Z,22.44
2019-06-08T19:36:27.827Z,22.36
2019-06-08T19:38:59.982Z,22.34
2019-06-08T19:41:33.074Z,22.36
2019-06-08T19:44:07.529Z,22.38
2019-06-08T19:46:40.792Z,22.41
2019-06-08T19:49:13.777Z,22.43
2019-06-08T19:51:49.378Z,22.37
2019-06-08T19:54:21.599Z,22.38
2019-06-08T19:56:57.409Z,22.33
2019-06-08T19:59:30.237Z,22.35
2019-06-08T20:02:03.332Z,22.36
2019-06-08T20:04:38.703Z,22.38
2019-06-08T20:07:11.356Z,22.38
2019-06-08T20:09:45.241Z,22.38
2019-06-08T20:12:19.070Z,22.37
2019-06-08T20:14:52.064Z,22.38
2019-06-08T20:17:28.172Z,22.41
2019-06-08T20:19:59.883Z,22.38
2019-06-08T20:22:33.280Z,22.38
2019-06-08T20:25:10.315Z,22.38
2019-06-08T20:27:41.713Z,22.33
2019-06-08T20:30:17.264Z,22.30
2019-06-08T20:32:52.231Z,22.32
2019-06-08T20:35:24.160Z,22.28
2019-06-08T20:37:57.912Z,22.25
2019-06-08T20:40:30.955Z,22.20
2019-06-08T20:43:04.147Z,22.17
2019-06-08T20:45:37.591Z,22.13
2019-06-08T20:48:10.843Z,22.16
2019-06-08T20:50:44.351Z,22.16
2019-06-08T20:53:17.765Z,22.18
2019-06-08T20:55:52.344Z,22.18
2019-06-08T20:58:25.563Z,22.17
2019-06-08T21:00:58.758Z,22.16
2019-06-08T21:03:31.947Z,22.16
2019-06-08T21:06:05.044Z,22.19
2019-06-08T21:08:38.132Z,22.14
2019-06-08T21:11:11.325Z,22.15
2019-06-08T21:13:45.595Z,22.12
2019-06-08T21:16:19.040Z,22.12
2019-06-08T21:18:52.965Z,22.12
2019-06-08T21:21:28.138Z,22.06
2019-06-08T21:24:01.472Z,22.03
2019-06-08T21:26:34.783Z,22.05
2019-06-08T21:29:08.300Z,21.99
2019-06-08T21:31:41.377Z,22.00
2019-06-08T21:34:14.364Z,21.98
2019-06-08T21:36:49.858Z,21.97
2019-06-08T21:39:22.186Z,21.95
2019-06-08T21:42:00.981Z,21.95
2019-06-08T21:44:29.802Z,21.93
2019-06-08T21:47:02.991Z,21.88
2019-06-08T21:49:38.259Z,21.89
2019-06-08T21:52:10.815Z,21.86
2019-06-08T21:54:43.904Z,21.84
2019-06-08T21:57:18.506Z,21.81
2019-06-08T22:00:06.968Z,21.78
2019-06-08T22:02:26.249Z,21.76
2019-06-08T22:05:02.937Z,21.73
2019-06-08T22:07:33.963Z,21.69
2019-06-08T22:10:09.747Z,21.60
2019-06-08T22:12:42.707Z,21.55
2019-06-08T22:15:18.106Z,21.58
2019-06-08T22:17:51.505Z,21.57
2019-06-08T22:20:24.667Z,21.48
2019-06-08T22:22:59.096Z,21.30
2019-06-08T22:25:33.340Z,21.29
2019-06-08T22:28:07.241Z,21.25
2019-06-08T22:30:43.085Z,21.10
2019-06-08T22:33:14.808Z,21.13
2019-06-08T22:35:47.999Z,21.10
2019-06-08T22:38:21.190Z,21.04
2019-06-08T22:40:55.247Z,21.03
2019-06-08T22:43:29.217Z,21.04
2019-06-08T22:46:03.508Z,21.06
2019-06-08T22:48:38.401Z,21.10
2019-06-08T22:51:11.045Z,20.94
2019-06-08T22:53:44.140Z,20.94
2019-06-08T22:56:18.267Z,20.92
2019-06-08T22:58:51.447Z,20.93
2019-06-08T23:01:24.642Z,20.86
2019-06-08T23:04:00.878Z,20.91
2019-06-08T23:06:32.565Z,20.93
2019-06-08T23:09:08.722Z,20.90
2019-06-08T23:11:41.920Z,20.88
2019-06-08T23:14:15.011Z,20.87
2019-06-08T23:16:48.203Z,20.88
2019-06-08T23:19:21.400Z,20.84
2019-06-08T23:21:55.211Z,20.82
2019-06-08T23:24:28.295Z,20.79
2019-06-08T23:27:02.132Z,20.68
2019-06-08T23:29:35.195Z,20.50
2019-06-08T23:32:11.453Z,20.48
2019-06-08T23:34:42.920Z,20.47
2019-06-08T23:37:18.135Z,20.51
2019-06-08T23:39:50.834Z,20.40
2019-06-08T23:42:23.824Z,20.41
2019-06-08T23:44:58.010Z,20.50
2019-06-08T23:47:31.642Z,20.41
2019-06-08T23:50:10.035Z,20.48
2019-06-08T23:52:41.205Z,20.57
2019-06-08T23:55:14.397Z,20.64
2019-06-08T23:57:47.590Z,20.74
